Sunbury, OH (43074)

4:32 AM EDT on September 02, 2015 (GMT -0400)
rural 5 acre lot | | Change Station
CLOSE
Current Station
Personal Weather Station
Location: Sunbury, OH
Elevation: 965 ft
Nearby Weather Stations

Elev 965 ft 40.29 °N, 82.88 °W | Updated 9 minutes ago

Clear
Clear
64.6 °F
Feels Like 64.6 °F
N
0.0
Wind Variable Wind from NE

Today
High -- | Low -- °F
--% Chance of Precip.
Yesterday
High -- | Low -- °F
Precip. -- in
6:59 AM 8:01 PM
Waning Gibbous, 82% visible
Pressure 30.11 in
Visibility 5.0 miles
Clouds Clear
Dew Point 64 °F
Humidity 97%
Rainfall 0.00 in
Snow Depth Not available.
UV 0 out of 12
Pollen 10.60 out of 12
Air Quality Not available.
Flu Activity Not available.
METAR KDLZ 020819Z AUTO 00000KT 5SM BR CLR 17/16 A3011 RMK AO2
Pressure 30.11 in
Visibility 5.0 miles
Clouds Clear
Dew Point 64 °F
Humidity 97%
Rainfall 0.00 in
Snow Depth Not available.
UV 0 out of 12
Pollen 10.60 out of 12
Air Quality Not available.
Flu Activity Not available.
METAR KDLZ 020819Z AUTO 00000KT 5SM BR CLR 17/16 A3011 RMK AO2

10-Day Weather Forecast

×

Almanac

Astronomy

Sep. 02, 2015 Rise Set
Actual Time
Civil Twilight
Nautical Twilight
Astronomical Twilight
Moon
Length of Visible Light
Length of Day
Tomorrow will be .
, % of the Moon is Illuminated

Today's Extremes

State Highs State Lows

Community

WunderPhotos

Upload Photos

1,851,728 photos uploaded!

WunderBlogs® & News

Nearby

Air Quality

  Air Quality AQ Index Pollutant
Not available.

Snow Depth

Station Depth Elevation

Earthquake Activity

City Distance Mag. Time & Date
Minimum magnitude displayed is 2.5.

Coastal Water Temperatures

Place Temperature

Stations

Nearby Weather Stations

Station Location Temp. Windchill Dew Point Humidity Wind Precip. Elev Updated Type